West Franklin, New Hampshire
Current Conditions -  °F | °C
As of 7:35 AM on Friday 24 Oct 2014 (Local Time) from KLCI Reporting Station
Overcast Overcast  
Wind Chill: 46°   Ceiling: 2100
Heat Index: 46°   Visibility: 10mi
Dew Point: 45°   Wind: 3mph
Humidity: 93%   Direction: 260°W
Pressure: 29.7"   Gusts: NA
Location:  43.4435°N, 71.6697°W
Report Text: KLCI 241135Z AUTO 26003KT 10SM OVC021 08/07 A2970 RMK AO1
Loading
Personal Weather Stations






























Interactive Weather Map New forecast layout! Learn more

10-Day Weather Forecast

Advertisements
Track Severe Weather on mobile